createdAt,value
2018-12-11T00:04:38.760Z,99.90
2018-12-11T00:09:33.342Z,99.90
2018-12-11T00:14:27.851Z,99.90
2018-12-11T00:19:22.373Z,99.90
2018-12-11T00:24:16.849Z,99.90
2018-12-11T00:29:11.311Z,99.90
2018-12-11T00:34:05.799Z,99.90
2018-12-11T00:39:00.282Z,99.90
2018-12-11T00:43:55.010Z,99.90
2018-12-11T00:48:49.571Z,99.90
2018-12-11T00:53:44.105Z,99.90
2018-12-11T00:58:38.620Z,99.90
2018-12-11T01:03:33.214Z,99.90
2018-12-11T01:08:27.879Z,99.90
2018-12-11T01:13:22.375Z,99.90
2018-12-11T01:18:16.867Z,99.90
2018-12-11T01:23:11.365Z,99.90
2018-12-11T01:28:05.911Z,99.90
2018-12-11T01:33:00.365Z,99.90
2018-12-11T01:37:54.929Z,99.90
2018-12-11T01:42:49.760Z,99.90
2018-12-11T01:47:44.304Z,99.90
2018-12-11T01:52:38.784Z,99.90
2018-12-11T01:57:35.098Z,99.90
2018-12-11T02:02:29.654Z,99.90
2018-12-11T02:07:24.153Z,99.90
2018-12-11T02:12:18.629Z,99.90
2018-12-11T02:17:13.104Z,99.90
2018-12-11T02:22:07.604Z,99.90
2018-12-11T02:27:02.153Z,99.90
2018-12-11T02:31:56.716Z,99.90
2018-12-11T02:36:51.232Z,99.90
2018-12-11T02:41:45.749Z,99.90
2018-12-11T02:46:40.277Z,99.90
2018-12-11T02:51:34.750Z,99.90
2018-12-11T02:56:29.226Z,99.90
2018-12-11T03:01:23.810Z,99.90
2018-12-11T03:06:18.298Z,99.90
2018-12-11T03:11:12.773Z,99.90
2018-12-11T03:16:07.281Z,99.90
2018-12-11T03:21:05.326Z,99.90
2018-12-11T03:25:59.853Z,99.90
2018-12-11T03:30:54.367Z,99.90
2018-12-11T03:35:48.927Z,99.90
2018-12-11T03:40:43.412Z,99.90
2018-12-11T03:45:38.014Z,99.90
2018-12-11T03:50:32.489Z,99.90
2018-12-11T03:55:26.983Z,99.90
2018-12-11T04:00:21.474Z,99.90
2018-12-11T04:05:15.934Z,99.90
2018-12-11T04:10:10.437Z,99.90
2018-12-11T04:15:05.429Z,99.90
2018-12-11T04:19:59.884Z,99.90
2018-12-11T04:24:54.334Z,99.90
2018-12-11T04:29:48.831Z,99.90
2018-12-11T04:34:43.412Z,99.90
2018-12-11T04:39:37.882Z,99.90
2018-12-11T04:44:32.436Z,99.90
2018-12-11T04:49:26.905Z,99.90
2018-12-11T04:54:21.499Z,99.90
2018-12-11T04:59:15.996Z,99.90
2018-12-11T05:04:10.497Z,99.90
2018-12-11T05:09:07.213Z,99.90
2018-12-11T05:14:01.690Z,99.90
2018-12-11T05:18:56.341Z,99.90
2018-12-11T05:23:50.848Z,99.90
2018-12-11T05:28:45.380Z,99.90
2018-12-11T05:33:39.845Z,99.90
2018-12-11T05:38:37.232Z,99.90
2018-12-11T05:43:32.095Z,99.90
2018-12-11T05:48:26.637Z,99.90
2018-12-11T05:53:21.148Z,99.90
2018-12-11T05:58:15.629Z,99.90
2018-12-11T06:03:10.140Z,99.90
2018-12-11T06:08:04.653Z,99.90
2018-12-11T06:12:59.141Z,99.90
2018-12-11T06:17:53.625Z,99.90
2018-12-11T06:22:48.118Z,99.90
2018-12-11T06:27:42.669Z,99.90
2018-12-11T06:32:37.158Z,99.90
2018-12-11T06:37:31.681Z,99.90
2018-12-11T06:42:26.269Z,99.90
2018-12-11T06:47:21.078Z,99.90
2018-12-11T06:52:15.588Z,99.90
2018-12-11T06:57:10.093Z,99.90
2018-12-11T07:02:04.656Z,99.90
2018-12-11T07:06:59.133Z,99.90
2018-12-11T07:11:53.677Z,99.90
2018-12-11T07:16:49.070Z,99.90
2018-12-11T07:21:43.933Z,99.90
2018-12-11T07:26:38.413Z,99.90
2018-12-11T07:31:32.936Z,99.90
2018-12-11T07:36:27.417Z,99.90
2018-12-11T07:41:21.904Z,99.90
2018-12-11T07:46:16.434Z,99.90
2018-12-11T07:51:10.945Z,99.90
2018-12-11T07:56:05.445Z,99.90
2018-12-11T08:00:59.916Z,99.90
2018-12-11T08:05:54.394Z,99.90
2018-12-11T08:10:48.881Z,99.90
2018-12-11T08:15:43.506Z,99.90
2018-12-11T08:20:38.048Z,99.90
2018-12-11T08:25:32.521Z,99.90
2018-12-11T08:30:27.044Z,99.90
2018-12-11T08:35:21.524Z,99.90
2018-12-11T08:40:16.012Z,99.90
2018-12-11T08:45:11.134Z,99.90
2018-12-11T08:50:07.180Z,99.90
2018-12-11T08:55:01.653Z,99.90
2018-12-11T08:59:56.145Z,99.90
2018-12-11T09:04:59.966Z,99.90
2018-12-11T09:09:55.094Z,99.90
2018-12-11T09:14:49.637Z,99.90
2018-12-11T09:19:44.137Z,99.90
2018-12-11T09:24:38.635Z,99.90
2018-12-11T09:29:33.110Z,99.90
2018-12-11T09:34:27.590Z,99.90
2018-12-11T09:39:22.069Z,99.90
2018-12-11T09:44:16.552Z,99.90
2018-12-11T09:49:11.021Z,99.90
2018-12-11T09:54:05.525Z,99.90
2018-12-11T09:59:00.104Z,99.90
2018-12-11T10:03:54.962Z,99.90
2018-12-11T10:08:49.409Z,90.70
2018-12-11T10:13:44.025Z,85.70
2018-12-11T10:18:38.549Z,80.30
2018-12-11T10:23:33.613Z,75.60
2018-12-11T10:28:29.111Z,71.00
2018-12-11T10:33:23.663Z,65.50
2018-12-11T10:38:19.359Z,64.30
2018-12-11T10:43:13.962Z,64.60
2018-12-11T10:48:08.409Z,65.60
2018-12-11T10:53:02.876Z,61.50
2018-12-11T10:57:57.600Z,57.30
2018-12-11T11:02:57.544Z,56.80
2018-12-11T11:07:52.004Z,53.60
2018-12-11T11:12:53.166Z,52.70
2018-12-11T11:17:48.304Z,53.30
2018-12-11T11:22:43.397Z,52.50
2018-12-11T11:27:38.104Z,50.40
2018-12-11T11:32:33.969Z,50.60
2018-12-11T11:37:30.196Z,47.40
2018-12-11T11:42:27.743Z,46.90
2018-12-11T11:47:26.619Z,44.50
2018-12-11T11:52:21.341Z,44.80
2018-12-11T11:57:16.462Z,42.40
2018-12-11T12:02:11.177Z,44.00
2018-12-11T12:07:05.693Z,50.10
2018-12-11T12:12:00.216Z,45.90
2018-12-11T12:16:54.813Z,42.30
2018-12-11T12:21:49.281Z,44.20
2018-12-11T12:26:43.837Z,40.00
2018-12-11T12:31:38.320Z,40.70
2018-12-11T12:36:32.844Z,42.50
2018-12-11T12:41:27.366Z,41.00
2018-12-11T12:46:22.522Z,38.10
2018-12-11T12:51:17.064Z,39.30
2018-12-11T12:56:11.631Z,37.70
2018-12-11T13:01:06.201Z,35.90
2018-12-11T13:06:00.693Z,34.40
2018-12-11T13:10:56.252Z,30.90
2018-12-11T13:15:50.746Z,33.00
2018-12-11T13:20:45.254Z,32.80
2018-12-11T13:25:39.792Z,31.40
2018-12-11T13:30:34.290Z,31.40
2018-12-11T13:35:28.789Z,31.50
2018-12-11T13:40:23.373Z,36.80
2018-12-11T13:45:17.986Z,37.60
2018-12-11T13:50:12.677Z,39.20
2018-12-11T13:55:09.125Z,41.10
2018-12-11T14:00:04.263Z,42.70
2018-12-11T14:04:58.901Z,42.80
2018-12-11T14:09:53.367Z,43.60
2018-12-11T14:14:48.041Z,43.80
2018-12-11T14:19:42.941Z,44.30
2018-12-11T14:24:37.449Z,44.90
2018-12-11T14:29:31.996Z,45.20
2018-12-11T14:34:26.529Z,46.20
2018-12-11T14:39:21.311Z,46.30
2018-12-11T14:44:15.885Z,45.60
2018-12-11T14:49:10.893Z,46.30
2018-12-11T14:54:05.781Z,46.10
2018-12-11T14:59:00.445Z,47.30
2018-12-11T15:03:54.966Z,47.30
2018-12-11T15:08:49.773Z,46.40
2018-12-11T15:13:44.385Z,44.80
2018-12-11T15:18:38.930Z,44.60
2018-12-11T15:23:33.458Z,44.60
2018-12-11T15:28:27.995Z,44.70
2018-12-11T15:33:22.518Z,45.40
2018-12-11T15:38:17.016Z,45.70
2018-12-11T15:43:11.596Z,44.90
2018-12-11T15:48:06.175Z,45.40
2018-12-11T15:53:00.667Z,45.50
2018-12-11T15:57:55.353Z,45.80
2018-12-11T16:02:49.930Z,45.40
2018-12-11T16:07:44.569Z,45.40
2018-12-11T16:12:39.192Z,45.50
2018-12-11T16:17:33.798Z,45.70
2018-12-11T16:22:28.378Z,45.80
2018-12-11T16:27:23.263Z,45.80
2018-12-11T16:32:17.780Z,44.40
2018-12-11T16:37:12.936Z,45.10
2018-12-11T16:42:07.476Z,45.90
2018-12-11T16:47:02.198Z,46.60
2018-12-11T16:51:56.961Z,47.60
2018-12-11T16:56:52.293Z,47.90
2018-12-11T17:01:47.467Z,48.50
2018-12-11T17:06:42.359Z,48.70
2018-12-11T17:11:36.891Z,49.20
2018-12-11T17:16:31.429Z,52.10
2018-12-11T17:21:26.077Z,53.80
2018-12-11T17:26:20.569Z,53.60
2018-12-11T17:31:15.245Z,55.10
2018-12-11T17:36:09.879Z,55.40
2018-12-11T17:41:04.446Z,51.50
2018-12-11T17:45:58.942Z,50.30
2018-12-11T17:50:53.806Z,50.00
2018-12-11T17:55:48.358Z,49.30
2018-12-11T18:00:42.904Z,48.70
2018-12-11T18:05:37.365Z,47.70
2018-12-11T18:10:32.361Z,47.20
2018-12-11T18:15:27.646Z,46.90
2018-12-11T18:20:22.205Z,46.60
2018-12-11T18:25:17.073Z,46.60
2018-12-11T18:30:11.746Z,47.50
2018-12-11T18:35:07.482Z,48.00
2018-12-11T18:40:02.882Z,47.20
2018-12-11T18:45:03.267Z,46.80
2018-12-11T18:49:55.560Z,46.80
2018-12-11T18:54:50.718Z,46.90
2018-12-11T18:59:45.681Z,47.40
2018-12-11T19:04:40.468Z,47.70
2018-12-11T19:09:36.165Z,47.90
2018-12-11T19:14:30.830Z,48.40
2018-12-11T19:19:27.652Z,48.50
2018-12-11T19:24:30.948Z,49.20
2018-12-11T19:29:26.511Z,47.10
2018-12-11T19:34:22.199Z,46.20
2018-12-11T19:39:17.099Z,45.90
2018-12-11T19:44:12.224Z,45.80
2018-12-11T19:49:08.801Z,45.80
2018-12-11T19:54:04.568Z,46.00
2018-12-11T19:58:59.392Z,46.10
2018-12-11T20:03:54.771Z,46.30
2018-12-11T20:08:49.701Z,46.70
2018-12-11T20:13:44.393Z,46.70
2018-12-11T20:18:40.525Z,46.60
2018-12-11T20:23:35.404Z,47.00
2018-12-11T20:28:30.149Z,47.30
2018-12-11T20:33:26.180Z,47.10
2018-12-11T20:38:21.008Z,47.70
2018-12-11T20:43:16.978Z,47.50
2018-12-11T20:48:11.685Z,46.90
2018-12-11T20:53:08.028Z,47.50
2018-12-11T20:58:03.515Z,47.40
2018-12-11T21:02:58.361Z,47.50
2018-12-11T21:07:53.283Z,47.70
2018-12-11T21:12:47.941Z,47.10
2018-12-11T21:17:49.020Z,46.90
2018-12-11T21:22:50.287Z,46.90
2018-12-11T21:27:48.078Z,47.60
2018-12-11T21:32:45.217Z,48.00
2018-12-11T21:37:40.139Z,47.50
2018-12-11T21:42:34.831Z,47.20
2018-12-11T21:47:29.444Z,46.80
2018-12-11T21:52:32.065Z,47.00
2018-12-11T21:57:28.233Z,46.90
2018-12-11T22:02:23.095Z,47.40
2018-12-11T22:07:17.759Z,46.30
2018-12-11T22:12:12.680Z,46.90
2018-12-11T22:17:09.605Z,47.50
2018-12-11T22:22:04.076Z,47.80
2018-12-11T22:26:58.775Z,48.40
2018-12-11T22:31:56.550Z,48.00
2018-12-11T22:36:51.034Z,48.10
2018-12-11T22:41:45.469Z,48.20
2018-12-11T22:46:39.919Z,48.50
2018-12-11T22:51:34.861Z,48.00
2018-12-11T22:56:33.307Z,48.40
2018-12-11T23:01:31.489Z,48.60
2018-12-11T23:06:27.662Z,48.50
2018-12-11T23:11:23.051Z,48.90
2018-12-11T23:16:19.033Z,49.00
2018-12-11T23:21:15.847Z,49.10
2018-12-11T23:26:12.815Z,46.20
2018-12-11T23:31:08.235Z,45.90
2018-12-11T23:36:04.142Z,46.00
2018-12-11T23:40:59.401Z,47.70
2018-12-11T23:45:54.890Z,48.30
2018-12-11T23:50:49.796Z,48.00
2018-12-11T23:55:44.554Z,47.80
